Time,TemperatureF,DewpointF,PressureIn,WindDirection,WindDirectionDegrees,WindSpeedMPH,WindSpeedGustMPH,Humidity,HourlyPrecipIn,Conditions,Clouds,dailyrainin,SolarRadiationWatts/m^2,SoftwareType,DateUTC
2014-10-22 00:00:00,56.5,55.7,29.90,North,355,0.0,0.0,97,0.04,,,0.22,0,Wunderground v.1.15,2014-10-22 04:00:00,
2014-10-22 00:06:00,56.5,55.7,29.89,NNW,335,0.0,1.0,97,0.00,,,0.00,0,Wunderground v.1.15,2014-10-22 04:06:00,
2014-10-22 00:11:00,56.5,55.7,29.89,NNW,335,0.0,0.0,97,0.00,,,0.00,0,Wunderground v.1.15,2014-10-22 04:11:00,
2014-10-22 00:17:00,56.6,55.8,29.89,NNW,348,0.0,2.0,97,0.00,,,0.00,0,Wunderground v.1.15,2014-10-22 04:17:00,
2014-10-22 00:23:00,56.6,55.8,29.89,NNW,348,0.0,0.0,97,0.00,,,0.00,0,Wunderground v.1.15,2014-10-22 04:23:00,
2014-10-22 00:28:00,56.7,55.9,29.89,NNW,348,0.0,1.0,97,0.00,,,0.00,0,Wunderground v.1.15,2014-10-22 04:28:00,
2014-10-22 00:33:00,56.8,56.0,29.89,North,349,0.0,2.0,97,0.00,,,0.00,0,Wunderground v.1.15,2014-10-22 04:33:00,
2014-10-22 00:39:00,56.8,56.0,29.89,ENE,78,0.0,2.0,97,0.00,,,0.00,0,Wunderground v.1.15,2014-10-22 04:39:00,
2014-10-22 00:45:00,56.9,56.1,29.89,North,360,0.0,1.0,97,0.00,,,0.00,0,Wunderground v.1.15,2014-10-22 04:45:00,
2014-10-22 00:51:00,57.0,56.2,29.89,North,5,1.0,1.0,97,0.00,,,0.00,0,Wunderground v.1.15,2014-10-22 04:51:00,
2014-10-22 00:56:00,57.0,56.2,29.89,NNW,340,0.0,3.0,97,0.00,,,0.00,0,Wunderground v.1.15,2014-10-22 04:56:00,
2014-10-22 01:01:00,57.0,56.2,29.89,NNW,341,1.0,1.0,97,0.00,,,0.00,0,Wunderground v.1.15,2014-10-22 05:01:00,
2014-10-22 01:07:00,57.0,56.2,29.89,North,355,1.0,1.0,97,0.00,,,0.00,0,Wunderground v.1.15,2014-10-22 05:07:00,
2014-10-22 01:13:00,57.1,56.3,29.89,North,350,0.0,1.0,97,0.00,,,0.00,0,Wunderground v.1.15,2014-10-22 05:13:00,
2014-10-22 01:19:00,57.0,56.2,29.89,NNW,346,0.0,2.0,97,0.00,,,0.00,0,Wunderground v.1.15,2014-10-22 05:19:00,
2014-10-22 01:24:00,57.0,56.2,29.89,NW,323,0.0,1.0,97,0.00,,,0.00,0,Wunderground v.1.15,2014-10-22 05:24:00,
2014-10-22 01:30:00,56.9,56.1,29.88,North,355,0.0,1.0,97,0.00,,,0.00,0,Wunderground v.1.15,2014-10-22 05:30:00,
2014-10-22 01:36:00,57.0,56.2,29.89,North,355,1.0,2.0,97,0.00,,,0.00,0,Wunderground v.1.15,2014-10-22 05:36:00,
2014-10-22 01:41:00,56.9,56.1,29.88,North,9,1.0,1.0,97,0.00,,,0.00,0,Wunderground v.1.15,2014-10-22 05:41:00,
2014-10-22 01:46:00,56.9,56.1,29.88,NW,306,1.0,3.0,97,0.00,,,0.00,0,Wunderground v.1.15,2014-10-22 05:46:00,
2014-10-22 01:52:00,56.9,56.1,29.88,NNW,337,1.0,1.0,97,0.00,,,0.00,0,Wunderground v.1.15,2014-10-22 05:52:00,
2014-10-22 01:57:00,56.8,56.0,29.88,North,5,1.0,3.0,97,0.00,,,0.00,0,Wunderground v.1.15,2014-10-22 05:57:00,
2014-10-22 02:03:00,56.8,56.0,29.88,NNW,342,1.0,1.0,97,0.00,,,0.00,0,Wunderground v.1.15,2014-10-22 06:03:00,
2014-10-22 02:09:00,56.8,56.0,29.88,ENE,71,0.0,1.0,97,0.00,,,0.00,0,Wunderground v.1.15,2014-10-22 06:09:00,
2014-10-22 02:15:00,56.8,56.0,29.88,North,5,1.0,1.0,97,0.00,,,0.00,0,Wunderground v.1.15,2014-10-22 06:15:00,
2014-10-22 02:20:00,56.8,56.0,29.88,North,5,0.0,1.0,97,0.00,,,0.00,0,Wunderground v.1.15,2014-10-22 06:20:00,
2014-10-22 02:25:00,56.8,56.0,29.88,NW,314,1.0,2.0,97,0.00,,,0.00,0,Wunderground v.1.15,2014-10-22 06:25:00,
2014-10-22 02:31:00,56.8,56.0,29.87,South,170,1.0,1.0,97,0.00,,,0.00,0,Wunderground v.1.15,2014-10-22 06:31:00,
2014-10-22 02:37:00,56.8,56.0,29.88,North,350,0.0,2.0,97,0.00,,,0.00,0,Wunderground v.1.15,2014-10-22 06:37:00,
2014-10-22 02:42:00,56.8,56.0,29.87,North,350,1.0,1.0,97,0.00,,,0.00,0,Wunderground v.1.15,2014-10-22 06:42:00,
2014-10-22 02:48:00,56.8,56.0,29.87,North,5,0.0,2.0,97,0.00,,,0.00,0,Wunderground v.1.15,2014-10-22 06:48:00,
2014-10-22 02:54:00,56.9,56.1,29.87,WNW,297,1.0,1.0,97,0.00,,,0.00,0,Wunderground v.1.15,2014-10-22 06:54:00,
2014-10-22 02:59:00,56.9,56.1,29.87,NNE,19,1.0,4.0,97,0.00,,,0.00,0,Wunderground v.1.15,2014-10-22 06:59:00,
2014-10-22 03:05:00,56.8,56.0,29.87,North,5,1.0,2.0,97,0.00,,,0.00,0,Wunderground v.1.15,2014-10-22 07:05:00,
2014-10-22 03:10:00,56.7,55.9,29.87,North,351,1.0,1.0,97,0.00,,,0.00,0,Wunderground v.1.15,2014-10-22 07:10:00,
2014-10-22 03:16:00,56.6,55.8,29.87,NW,311,1.0,2.0,97,0.00,,,0.00,0,Wunderground v.1.15,2014-10-22 07:16:00,
2014-10-22 03:22:00,56.5,55.7,29.87,North,355,1.0,2.0,97,0.00,,,0.00,0,Wunderground v.1.15,2014-10-22 07:22:00,
2014-10-22 03:28:00,56.3,55.5,29.87,SE,142,1.0,2.0,97,0.00,,,0.00,0,Wunderground v.1.15,2014-10-22 07:28:00,
2014-10-22 03:33:00,56.2,55.4,29.87,NNE,26,1.0,2.0,97,0.00,,,0.00,0,Wunderground v.1.15,2014-10-22 07:33:00,
2014-10-22 03:39:00,56.1,55.3,29.87,NNW,343,1.0,3.0,97,0.00,,,0.00,0,Wunderground v.1.15,2014-10-22 07:39:00,
2014-10-22 03:45:00,56.1,55.3,29.87,NNW,348,1.0,3.0,97,0.00,,,0.00,0,Wunderground v.1.15,2014-10-22 07:45:00,
2014-10-22 03:51:00,56.2,55.4,29.87,North,360,1.0,2.0,97,0.00,,,0.00,0,Wunderground v.1.15,2014-10-22 07:51:00,
2014-10-22 03:57:00,56.3,55.5,29.87,North,9,1.0,2.0,97,0.00,,,0.00,0,Wunderground v.1.15,2014-10-22 07:57:00,
2014-10-22 04:02:00,56.3,55.5,29.86,NW,309,1.0,1.0,97,0.00,,,0.00,0,Wunderground v.1.15,2014-10-22 08:02:00,
2014-10-22 04:07:00,56.4,55.6,29.86,NNW,344,1.0,2.0,97,0.00,,,0.00,0,Wunderground v.1.15,2014-10-22 08:07:00,
2014-10-22 04:13:00,56.5,55.7,29.86,North,360,1.0,3.0,97,0.00,,,0.00,0,Wunderground v.1.15,2014-10-22 08:13:00,
2014-10-22 04:19:00,56.5,55.7,29.86,NNW,348,2.0,3.0,97,0.00,,,0.00,0,Wunderground v.1.15,2014-10-22 08:19:00,
2014-10-22 04:25:00,56.5,55.4,29.86,ESE,121,1.0,5.0,96,0.00,,,0.00,0,Wunderground v.1.15,2014-10-22 08:25:00,
2014-10-22 04:31:00,56.6,55.5,29.86,NNW,344,1.0,2.0,96,0.00,,,0.00,0,Wunderground v.1.15,2014-10-22 08:31:00,
2014-10-22 04:37:00,56.6,55.5,29.86,NE,35,1.0,4.0,96,0.00,,,0.00,0,Wunderground v.1.15,2014-10-22 08:37:00,
2014-10-22 04:43:00,56.6,55.5,29.86,SE,130,2.0,3.0,96,0.00,,,0.00,0,Wunderground v.1.15,2014-10-22 08:43:00,
2014-10-22 04:48:00,56.4,55.3,29.86,NNE,29,2.0,3.0,96,0.00,,,0.00,0,Wunderground v.1.15,2014-10-22 08:48:00,
2014-10-22 04:54:00,56.3,55.2,29.86,North,360,2.0,5.0,96,0.00,,,0.00,0,Wunderground v.1.15,2014-10-22 08:54:00,
2014-10-22 04:59:00,56.1,55.0,29.86,SSE,163,2.0,5.0,96,0.00,,,0.00,0,Wunderground v.1.15,2014-10-22 08:59:00,
2014-10-22 05:05:00,56.0,54.9,29.87,NNW,348,1.0,3.0,96,0.00,,,0.00,0,Wunderground v.1.15,2014-10-22 09:05:00,
2014-10-22 05:11:00,55.9,54.8,29.87,NW,319,1.0,1.0,96,0.00,,,0.00,0,Wunderground v.1.15,2014-10-22 09:11:00,
2014-10-22 05:16:00,55.9,54.8,29.88,NNE,20,1.0,4.0,96,0.00,,,0.00,0,Wunderground v.1.15,2014-10-22 09:16:00,
2014-10-22 05:22:00,55.8,54.4,29.88,North,350,2.0,2.0,95,0.00,,,0.00,0,Wunderground v.1.15,2014-10-22 09:22:00,
2014-10-22 05:28:00,55.8,54.4,29.88,SE,146,1.0,3.0,95,0.00,,,0.00,0,Wunderground v.1.15,2014-10-22 09:28:00,
2014-10-22 05:34:00,55.8,54.4,29.88,North,355,1.0,3.0,95,0.00,,,0.00,0,Wunderground v.1.15,2014-10-22 09:34:00,
2014-10-22 05:39:00,55.8,54.4,29.88,North,9,2.0,3.0,95,0.00,,,0.00,0,Wunderground v.1.15,2014-10-22 09:39:00,
2014-10-22 05:45:00,55.8,54.4,29.88,North,355,2.0,4.0,95,0.00,,,0.00,0,Wunderground v.1.15,2014-10-22 09:45:00,
2014-10-22 05:50:00,55.8,54.4,29.88,NNW,343,2.0,2.0,95,0.00,,,0.00,0,Wunderground v.1.15,2014-10-22 09:50:00,
2014-10-22 05:56:00,55.8,54.4,29.88,NNE,20,2.0,3.0,95,0.00,,,0.00,0,Wunderground v.1.15,2014-10-22 09:56:00,
2014-10-22 06:01:00,55.8,54.4,29.88,North,10,3.0,3.0,95,0.00,,,0.00,0,Wunderground v.1.15,2014-10-22 10:01:00,
2014-10-22 06:07:00,55.9,54.5,29.88,NNE,16,3.0,3.0,95,0.00,,,0.00,0,Wunderground v.1.15,2014-10-22 10:07:00,
2014-10-22 06:13:00,55.8,54.1,29.88,NNW,348,2.0,2.0,94,0.00,,,0.00,0,Wunderground v.1.15,2014-10-22 10:13:00,
2014-10-22 06:19:00,55.8,54.1,29.88,NE,40,2.0,6.0,94,0.00,,,0.00,0,Wunderground v.1.15,2014-10-22 10:19:00,
2014-10-22 06:24:00,55.7,54.0,29.88,East,84,2.0,6.0,94,0.00,,,0.00,0,Wunderground v.1.15,2014-10-22 10:24:00,
2014-10-22 06:30:00,55.7,54.0,29.88,North,351,3.0,4.0,94,0.00,,,0.00,0,Wunderground v.1.15,2014-10-22 10:30:00,
2014-10-22 06:36:00,55.7,54.0,29.88,North,5,2.0,4.0,94,0.00,,,0.00,0,Wunderground v.1.15,2014-10-22 10:36:00,
2014-10-22 06:41:00,55.7,54.0,29.88,SSE,163,2.0,3.0,94,0.00,,,0.00,0,Wunderground v.1.15,2014-10-22 10:41:00,
2014-10-22 06:47:00,55.6,53.6,29.88,North,5,2.0,3.0,93,0.00,,,0.00,0,Wunderground v.1.15,2014-10-22 10:47:00,
2014-10-22 06:52:00,55.6,53.6,29.89,NNW,345,2.0,2.0,93,0.00,,,0.00,0,Wunderground v.1.15,2014-10-22 10:52:00,
2014-10-22 06:58:00,55.6,53.6,29.89,North,360,3.0,6.0,93,0.00,,,0.00,0,Wunderground v.1.15,2014-10-22 10:58:00,
2014-10-22 07:04:00,55.6,53.6,29.89,East,86,2.0,3.0,93,0.00,,,0.00,0,Wunderground v.1.15,2014-10-22 11:04:00,
2014-10-22 07:09:00,55.6,53.6,29.89,North,9,1.0,3.0,93,0.00,,,0.00,0,Wunderground v.1.15,2014-10-22 11:09:00,
2014-10-22 07:15:00,55.6,53.6,29.89,NE,54,2.0,4.0,93,0.00,,,0.00,0,Wunderground v.1.15,2014-10-22 11:15:00,
2014-10-22 07:21:00,55.6,53.6,29.89,North,9,1.0,1.0,93,0.00,,,0.00,0,Wunderground v.1.15,2014-10-22 11:21:00,
2014-10-22 07:27:00,55.5,53.5,29.89,ESE,109,1.0,6.0,93,0.00,,,0.00,0,Wunderground v.1.15,2014-10-22 11:27:00,
2014-10-22 07:32:00,55.4,53.1,29.89,NNE,32,2.0,2.0,92,0.00,,,0.00,0,Wunderground v.1.15,2014-10-22 11:32:00,
2014-10-22 07:37:00,55.3,53.0,29.90,North,355,2.0,3.0,92,0.00,,,0.00,0,Wunderground v.1.15,2014-10-22 11:37:00,
2014-10-22 07:43:00,55.3,53.0,29.90,North,5,2.0,5.0,92,0.00,,,0.00,0,Wunderground v.1.15,2014-10-22 11:43:00,
2014-10-22 07:49:00,55.2,52.9,29.90,WNW,290,2.0,5.0,92,0.00,,,0.00,0,Wunderground v.1.15,2014-10-22 11:49:00,
2014-10-22 07:55:00,55.2,52.9,29.90,NE,49,2.0,4.0,92,0.00,,,0.00,0,Wunderground v.1.15,2014-10-22 11:55:00,
2014-10-22 08:00:00,55.1,52.8,29.90,SSE,155,2.0,2.0,92,0.00,,,0.00,0,Wunderground v.1.15,2014-10-22 12:00:00,
2014-10-22 08:06:00,55.1,52.8,29.91,NNE,13,2.0,4.0,92,0.00,,,0.00,0,Wunderground v.1.15,2014-10-22 12:06:00,
2014-10-22 08:11:00,55.1,52.8,29.91,North,5,2.0,3.0,92,0.00,,,0.00,5,Wunderground v.1.15,2014-10-22 12:11:00,
2014-10-22 08:16:00,55.1,52.8,29.91,NNE,13,2.0,5.0,92,0.00,,,0.00,5,Wunderground v.1.15,2014-10-22 12:16:00,
2014-10-22 08:22:00,55.1,52.8,29.91,East,90,2.0,2.0,92,0.00,,,0.00,0,Wunderground v.1.15,2014-10-22 12:22:00,
2014-10-22 08:28:00,55.0,52.7,29.91,North,5,2.0,5.0,92,0.00,,,0.00,0,Wunderground v.1.15,2014-10-22 12:28:00,
2014-10-22 08:34:00,55.0,52.7,29.92,North,5,2.0,4.0,92,0.00,,,0.00,5,Wunderground v.1.15,2014-10-22 12:34:00,
2014-10-22 08:39:00,55.0,52.7,29.92,North,11,2.0,6.0,92,0.00,,,0.00,7,Wunderground v.1.15,2014-10-22 12:39:00,
2014-10-22 08:45:00,55.0,52.7,29.92,NNE,23,2.0,4.0,92,0.00,,,0.00,5,Wunderground v.1.15,2014-10-22 12:45:00,
2014-10-22 08:51:00,54.9,52.6,29.92,NNE,14,1.0,2.0,92,0.00,,,0.00,7,Wunderground v.1.15,2014-10-22 12:51:00,
2014-10-22 08:56:00,54.9,52.6,29.92,NNW,344,1.0,4.0,92,0.00,,,0.00,7,Wunderground v.1.15,2014-10-22 12:56:00,
2014-10-22 09:01:00,54.8,52.5,29.92,NNW,347,2.0,2.0,92,0.00,,,0.00,5,Wunderground v.1.15,2014-10-22 13:01:00,
2014-10-22 09:07:00,54.8,52.8,29.92,North,10,2.0,3.0,93,0.00,,,0.00,5,Wunderground v.1.15,2014-10-22 13:07:00,
2014-10-22 09:13:00,54.7,52.7,29.92,NNE,26,2.0,5.0,93,0.00,,,0.00,11,Wunderground v.1.15,2014-10-22 13:13:00,
2014-10-22 09:19:00,54.6,52.6,29.92,NE,46,2.0,5.0,93,0.00,,,0.00,14,Wunderground v.1.15,2014-10-22 13:19:00,
2014-10-22 09:24:00,54.6,52.6,29.92,North,360,1.0,3.0,93,0.00,,,0.00,14,Wunderground v.1.15,2014-10-22 13:24:00,
2014-10-22 09:30:00,54.5,52.5,29.92,North,9,2.0,2.0,93,0.00,,,0.01,14,Wunderground v.1.15,2014-10-22 13:30:00,
2014-10-22 09:36:00,54.4,52.4,29.92,SW,232,3.0,5.0,93,0.00,,,0.01,12,Wunderground v.1.15,2014-10-22 13:36:00,
2014-10-22 09:41:00,54.4,52.4,29.92,North,355,2.0,2.0,93,0.00,,,0.01,14,Wunderground v.1.15,2014-10-22 13:41:00,
2014-10-22 09:47:00,54.3,52.3,29.92,North,360,2.0,6.0,93,0.00,,,0.01,21,Wunderground v.1.15,2014-10-22 13:47:00,
2014-10-22 09:53:00,54.2,52.2,29.92,North,10,3.0,4.0,93,0.00,,,0.01,19,Wunderground v.1.15,2014-10-22 13:53:00,
2014-10-22 09:58:00,54.2,52.2,29.92,North,5,2.0,4.0,93,0.00,,,0.01,18,Wunderground v.1.15,2014-10-22 13:58:00,
2014-10-22 10:03:00,54.2,52.2,29.92,SSE,152,2.0,4.0,93,0.00,,,0.01,25,Wunderground v.1.15,2014-10-22 14:03:00,
2014-10-22 10:09:00,54.2,52.5,29.91,North,355,2.0,4.0,94,0.00,,,0.01,21,Wunderground v.1.15,2014-10-22 14:09:00,
2014-10-22 10:15:00,54.2,52.5,29.91,North,351,2.0,4.0,94,0.00,,,0.02,32,Wunderground v.1.15,2014-10-22 14:15:00,
2014-10-22 10:20:00,54.2,52.5,29.91,SE,144,3.0,3.0,94,0.00,,,0.02,35,Wunderground v.1.15,2014-10-22 14:20:00,
2014-10-22 10:26:00,54.2,52.5,29.91,NNE,22,2.0,3.0,94,0.00,,,0.02,47,Wunderground v.1.15,2014-10-22 14:26:00,
2014-10-22 10:32:00,54.3,52.6,29.91,SE,130,1.0,2.0,94,0.00,,,0.02,49,Wunderground v.1.15,2014-10-22 14:32:00,
2014-10-22 10:38:00,54.4,52.7,29.91,North,5,2.0,7.0,94,0.00,,,0.02,44,Wunderground v.1.15,2014-10-22 14:38:00,
2014-10-22 10:44:00,54.4,52.7,29.91,North,351,3.0,3.0,94,0.00,,,0.02,40,Wunderground v.1.15,2014-10-22 14:44:00,
2014-10-22 10:50:00,54.4,52.7,29.91,NNW,334,2.0,2.0,94,0.00,,,0.02,42,Wunderground v.1.15,2014-10-22 14:50:00,
2014-10-22 10:56:00,54.4,52.7,29.91,SE,142,2.0,6.0,94,0.00,,,0.02,44,Wunderground v.1.15,2014-10-22 14:56:00,
2014-10-22 11:01:00,54.4,52.7,29.90,SSE,153,2.0,2.0,94,0.00,,,0.02,56,Wunderground v.1.15,2014-10-22 15:01:00,
2014-10-22 11:07:00,54.5,52.8,29.91,ENE,60,2.0,5.0,94,0.00,,,0.02,47,Wunderground v.1.15,2014-10-22 15:07:00,
2014-10-22 11:13:00,54.6,52.9,29.91,NNE,13,2.0,5.0,94,0.00,,,0.02,51,Wunderground v.1.15,2014-10-22 15:13:00,
2014-10-22 11:19:00,54.7,53.0,29.91,ESE,115,2.0,5.0,94,0.00,,,0.02,47,Wunderground v.1.15,2014-10-22 15:19:00,
2014-10-22 11:24:00,54.8,53.1,29.91,NNE,32,2.0,3.0,94,0.00,,,0.02,33,Wunderground v.1.15,2014-10-22 15:24:00,
2014-10-22 11:30:00,54.8,53.1,29.91,ESE,107,2.0,2.0,94,0.00,,,0.02,30,Wunderground v.1.15,2014-10-22 15:30:00,
2014-10-22 11:36:00,54.9,52.9,29.91,North,360,2.0,3.0,93,0.00,,,0.02,40,Wunderground v.1.15,2014-10-22 15:36:00,
2014-10-22 11:41:00,54.9,52.9,29.91,NW,323,2.0,2.0,93,0.00,,,0.02,42,Wunderground v.1.15,2014-10-22 15:41:00,
2014-10-22 11:47:00,55.1,53.1,29.90,NW,323,2.0,3.0,93,0.00,,,0.02,46,Wunderground v.1.15,2014-10-22 15:47:00,
2014-10-22 11:53:00,55.3,53.3,29.90,East,97,2.0,2.0,93,0.00,,,0.02,42,Wunderground v.1.15,2014-10-22 15:53:00,
2014-10-22 11:58:00,55.5,53.5,29.90,North,355,1.0,5.0,93,0.00,,,0.02,35,Wunderground v.1.15,2014-10-22 15:58:00,
2014-10-22 12:04:00,55.6,53.3,29.89,North,5,2.0,6.0,92,0.00,,,0.02,35,Wunderground v.1.15,2014-10-22 16:04:00,
2014-10-22 12:10:00,55.7,53.4,29.89,East,96,3.0,3.0,92,0.00,,,0.02,35,Wunderground v.1.15,2014-10-22 16:10:00,
2014-10-22 12:16:00,55.8,53.5,29.89,North,360,2.0,4.0,92,0.00,,,0.02,47,Wunderground v.1.15,2014-10-22 16:16:00,
2014-10-22 12:21:00,55.9,53.6,29.89,East,96,2.0,2.0,92,0.00,,,0.02,44,Wunderground v.1.15,2014-10-22 16:21:00,
2014-10-22 12:27:00,56.0,53.7,29.88,North,350,3.0,10.0,92,0.00,,,0.02,39,Wunderground v.1.15,2014-10-22 16:27:00,
2014-10-22 12:33:00,56.0,53.4,29.88,NNW,344,3.0,3.0,91,0.00,,,0.02,32,Wunderground v.1.15,2014-10-22 16:33:00,
2014-10-22 12:38:00,56.1,53.5,29.88,ENE,62,2.0,8.0,91,0.00,,,0.02,28,Wunderground v.1.15,2014-10-22 16:38:00,
2014-10-22 12:44:00,56.1,53.5,29.88,NNW,332,3.0,7.0,91,0.00,,,0.02,30,Wunderground v.1.15,2014-10-22 16:44:00,
2014-10-22 12:50:00,56.1,53.2,29.87,North,5,4.0,4.0,90,0.00,,,0.02,28,Wunderground v.1.15,2014-10-22 16:50:00,
2014-10-22 12:56:00,56.2,53.3,29.87,North,360,3.0,4.0,90,0.00,,,0.02,25,Wunderground v.1.15,2014-10-22 16:56:00,
2014-10-22 13:01:00,56.2,53.3,29.86,North,5,2.0,5.0,90,0.00,,,0.02,25,Wunderground v.1.15,2014-10-22 17:01:00,
2014-10-22 13:07:00,56.1,53.2,29.86,West,279,3.0,6.0,90,0.00,,,0.02,26,Wunderground v.1.15,2014-10-22 17:07:00,
2014-10-22 13:12:00,56.1,53.2,29.85,NNE,15,3.0,4.0,90,0.00,,,0.02,33,Wunderground v.1.15,2014-10-22 17:12:00,
2014-10-22 13:18:00,56.0,53.1,29.85,North,355,3.0,6.0,90,0.00,,,0.02,37,Wunderground v.1.15,2014-10-22 17:18:00,
2014-10-22 13:24:00,56.0,52.8,29.85,West,281,4.0,5.0,89,0.00,,,0.02,42,Wunderground v.1.15,2014-10-22 17:24:00,
2014-10-22 13:30:00,56.0,52.8,29.84,WNW,302,3.0,7.0,89,0.00,,,0.02,42,Wunderground v.1.15,2014-10-22 17:30:00,
2014-10-22 13:36:00,56.0,52.8,29.84,SE,124,3.0,7.0,89,0.00,,,0.02,37,Wunderground v.1.15,2014-10-22 17:36:00,
2014-10-22 13:42:00,55.9,52.7,29.85,NNE,13,4.0,7.0,89,0.00,,,0.02,40,Wunderground v.1.15,2014-10-22 17:42:00,
2014-10-22 13:48:00,55.8,52.6,29.85,NNE,17,4.0,7.0,89,0.00,,,0.02,32,Wunderground v.1.15,2014-10-22 17:48:00,
2014-10-22 13:53:00,55.6,52.4,29.84,NW,319,3.0,8.0,89,0.00,,,0.02,30,Wunderground v.1.15,2014-10-22 17:53:00,
2014-10-22 13:59:00,55.3,52.1,29.84,North,10,3.0,8.0,89,0.00,,,0.02,42,Wunderground v.1.15,2014-10-22 17:59:00,
2014-10-22 14:04:00,55.1,52.2,29.85,SE,132,4.0,7.0,90,0.00,,,0.02,39,Wunderground v.1.15,2014-10-22 18:04:00,
2014-10-22 14:10:00,55.0,52.1,29.85,SSE,155,3.0,3.0,90,0.00,,,0.02,30,Wunderground v.1.15,2014-10-22 18:10:00,
2014-10-22 14:16:00,54.8,51.9,29.84,ESE,109,3.0,10.0,90,0.00,,,0.02,28,Wunderground v.1.15,2014-10-22 18:16:00,
2014-10-22 14:22:00,54.6,51.4,29.84,SE,129,3.0,6.0,89,0.00,,,0.02,26,Wunderground v.1.15,2014-10-22 18:22:00,
2014-10-22 14:27:00,54.4,51.5,29.84,North,355,3.0,6.0,90,0.00,,,0.02,30,Wunderground v.1.15,2014-10-22 18:27:00,
2014-10-22 14:33:00,54.4,51.5,29.83,NNE,16,3.0,5.0,90,0.00,,,0.02,30,Wunderground v.1.15,2014-10-22 18:33:00,
2014-10-22 14:39:00,54.4,51.5,29.83,East,99,3.0,5.0,90,0.00,,,0.02,25,Wunderground v.1.15,2014-10-22 18:39:00,
2014-10-22 14:44:00,54.4,51.2,29.83,South,178,4.0,4.0,89,0.00,,,0.03,26,Wunderground v.1.15,2014-10-22 18:44:00,
2014-10-22 14:49:00,54.3,51.1,29.83,South,169,4.0,7.0,89,0.00,,,0.03,25,Wunderground v.1.15,2014-10-22 18:49:00,
2014-10-22 14:55:00,54.2,51.0,29.82,North,5,4.0,8.0,89,0.00,,,0.03,25,Wunderground v.1.15,2014-10-22 18:55:00,
2014-10-22 15:01:00,54.1,50.9,29.82,NNW,344,4.0,5.0,89,0.00,,,0.03,21,Wunderground v.1.15,2014-10-22 19:01:00,
2014-10-22 15:07:00,54.0,51.1,29.81,North,355,3.0,6.0,90,0.00,,,0.03,16,Wunderground v.1.15,2014-10-22 19:07:00,
2014-10-22 15:13:00,53.8,51.2,29.81,SSE,153,3.0,6.0,91,0.00,,,0.03,18,Wunderground v.1.15,2014-10-22 19:13:00,
2014-10-22 15:18:00,53.6,51.0,29.81,NNE,13,4.0,9.0,91,0.00,,,0.04,18,Wunderground v.1.15,2014-10-22 19:18:00,
2014-10-22 15:24:00,53.5,50.9,29.81,North,360,5.0,8.0,91,0.00,,,0.04,14,Wunderground v.1.15,2014-10-22 19:24:00,
2014-10-22 15:30:00,53.3,51.0,29.80,North,355,4.0,5.0,92,0.00,,,0.04,18,Wunderground v.1.15,2014-10-22 19:30:00,
2014-10-22 15:36:00,53.2,50.9,29.81,North,360,3.0,7.0,92,0.04,,,0.05,19,Wunderground v.1.15,2014-10-22 19:36:00,
2014-10-22 15:41:00,53.1,50.8,29.80,North,355,4.0,7.0,92,0.09,,,0.06,12,Wunderground v.1.15,2014-10-22 19:41:00,
2014-10-22 15:46:00,53.1,51.1,29.81,SSE,161,3.0,7.0,93,0.07,,,0.06,12,Wunderground v.1.15,2014-10-22 19:46:00,
2014-10-22 15:52:00,53.0,51.0,29.80,South,178,2.0,3.0,93,0.04,,,0.06,14,Wunderground v.1.15,2014-10-22 19:52:00,
2014-10-22 15:58:00,53.0,51.0,29.80,North,360,2.0,5.0,93,0.00,,,0.06,11,Wunderground v.1.15,2014-10-22 19:58:00,
2014-10-22 16:03:00,52.9,50.9,29.80,SW,228,3.0,8.0,93,0.00,,,0.06,12,Wunderground v.1.15,2014-10-22 20:03:00,
2014-10-22 16:09:00,52.9,50.9,29.80,NE,48,3.0,8.0,93,0.00,,,0.06,11,Wunderground v.1.15,2014-10-22 20:09:00,
2014-10-22 16:15:00,52.9,50.9,29.79,NNE,18,3.0,4.0,93,0.00,,,0.06,9,Wunderground v.1.15,2014-10-22 20:15:00,
2014-10-22 16:20:00,52.9,50.9,29.79,South,169,4.0,5.0,93,0.00,,,0.06,12,Wunderground v.1.15,2014-10-22 20:20:00,
2014-10-22 16:26:00,53.0,51.0,29.80,SSE,155,4.0,5.0,93,0.00,,,0.06,7,Wunderground v.1.15,2014-10-22 20:26:00,
2014-10-22 16:32:00,53.0,51.0,29.79,NNW,333,3.0,9.0,93,0.00,,,0.06,7,Wunderground v.1.15,2014-10-22 20:32:00,
2014-10-22 16:37:00,53.0,51.0,29.79,ENE,74,3.0,9.0,93,0.00,,,0.06,9,Wunderground v.1.15,2014-10-22 20:37:00,
2014-10-22 16:43:00,52.9,50.9,29.79,SSW,207,3.0,5.0,93,0.15,,,0.08,5,Wunderground v.1.15,2014-10-22 20:43:00,
2014-10-22 16:49:00,52.8,50.8,29.79,NNW,338,3.0,7.0,93,0.08,,,0.08,7,Wunderground v.1.15,2014-10-22 20:49:00,
2014-10-22 16:55:00,52.7,50.7,29.78,SSW,201,3.0,4.0,93,0.07,,,0.09,7,Wunderground v.1.15,2014-10-22 20:55:00,
2014-10-22 17:00:00,52.5,50.5,29.78,North,360,3.0,4.0,93,0.09,,,0.10,7,Wunderground v.1.15,2014-10-22 21:00:00,
2014-10-22 17:06:00,52.4,50.4,29.78,NW,319,4.0,7.0,93,0.10,,,0.11,7,Wunderground v.1.15,2014-10-22 21:06:00,
2014-10-22 17:12:00,52.4,50.7,29.78,NNE,17,4.0,5.0,94,0.11,,,0.12,5,Wunderground v.1.15,2014-10-22 21:12:00,
2014-10-22 17:18:00,52.4,50.7,29.78,NNE,16,3.0,6.0,94,0.05,,,0.12,5,Wunderground v.1.15,2014-10-22 21:18:00,
2014-10-22 17:23:00,52.3,50.6,29.78,West,276,3.0,3.0,94,0.04,,,0.12,7,Wunderground v.1.15,2014-10-22 21:23:00,
2014-10-22 17:29:00,52.3,50.6,29.78,NNE,15,3.0,8.0,94,0.00,,,0.12,0,Wunderground v.1.15,2014-10-22 21:29:00,
2014-10-22 17:34:00,52.3,50.6,29.78,NNE,24,3.0,5.0,94,0.00,,,0.12,0,Wunderground v.1.15,2014-10-22 21:34:00,
2014-10-22 17:40:00,52.3,50.6,29.77,North,5,4.0,4.0,94,0.00,,,0.12,0,Wunderground v.1.15,2014-10-22 21:40:00,
2014-10-22 17:45:00,52.3,50.6,29.77,South,185,4.0,6.0,94,0.00,,,0.12,0,Wunderground v.1.15,2014-10-22 21:45:00,
2014-10-22 17:51:00,52.3,50.6,29.77,WNW,285,4.0,4.0,94,0.00,,,0.13,0,Wunderground v.1.15,2014-10-22 21:51:00,
2014-10-22 17:57:00,52.3,50.6,29.77,North,5,4.0,5.0,94,0.12,,,0.14,0,Wunderground v.1.15,2014-10-22 21:57:00,
2014-10-22 18:02:00,52.2,50.5,29.77,NNW,343,3.0,6.0,94,0.11,,,0.15,0,Wunderground v.1.15,2014-10-22 22:02:00,
2014-10-22 18:08:00,52.2,50.5,29.77,NE,51,4.0,7.0,94,0.20,,,0.17,0,Wunderground v.1.15,2014-10-22 22:08:00,
2014-10-22 18:14:00,52.1,50.4,29.77,NNW,328,4.0,9.0,94,0.16,,,0.18,0,Wunderground v.1.15,2014-10-22 22:14:00,
2014-10-22 18:19:00,52.1,50.7,29.77,North,355,3.0,9.0,95,0.24,,,0.21,0,Wunderground v.1.15,2014-10-22 22:19:00,
2014-10-22 18:25:00,51.9,50.5,29.77,North,355,4.0,7.0,95,0.19,,,0.23,0,Wunderground v.1.15,2014-10-22 22:25:00,